createdAt,value
2018-07-05T00:01:53.730Z,81.34
2018-07-05T00:05:09.132Z,81.80
2018-07-05T00:08:30.590Z,81.56
2018-07-05T00:11:52.244Z,81.89
2018-07-05T00:15:13.658Z,82.10
2018-07-05T00:18:35.124Z,82.03
2018-07-05T00:21:56.615Z,82.01
2018-07-05T00:25:18.004Z,81.52
2018-07-05T00:28:40.577Z,81.85
2018-07-05T00:32:02.033Z,81.71
2018-07-05T00:35:23.466Z,82.64
2018-07-05T00:38:44.764Z,81.90
2018-07-05T00:42:00.154Z,83.17
2018-07-05T00:45:21.673Z,82.50
2018-07-05T00:48:43.068Z,82.88
2018-07-05T00:52:04.686Z,83.08
2018-07-05T00:55:26.148Z,83.58
2018-07-05T00:58:47.375Z,83.51
2018-07-05T01:02:08.885Z,83.42
2018-07-05T01:05:30.228Z,83.11
2018-07-05T01:08:51.704Z,83.58
2018-07-05T01:12:13.115Z,82.87
2018-07-05T01:15:34.673Z,83.20
2018-07-05T01:18:56.004Z,83.05
2018-07-05T01:22:17.689Z,82.60
2018-07-05T01:25:38.965Z,83.43
2018-07-05T01:29:00.433Z,83.92
2018-07-05T01:32:15.809Z,82.62
2018-07-05T01:35:37.868Z,82.86
2018-07-05T01:38:59.296Z,82.82
2018-07-05T01:42:21.047Z,82.72
2018-07-05T01:45:42.557Z,82.21
2018-07-05T01:49:03.892Z,82.76
2018-07-05T01:52:19.359Z,83.19
2018-07-05T01:55:40.825Z,83.01
2018-07-05T01:59:02.181Z,83.14
2018-07-05T02:02:23.615Z,83.11
2018-07-05T02:05:45.064Z,83.52
2018-07-05T02:09:06.519Z,83.39
2018-07-05T02:12:27.955Z,82.81
2018-07-05T02:15:49.477Z,83.38
2018-07-05T02:19:11.236Z,82.99
2018-07-05T02:22:32.525Z,83.29
2018-07-05T02:25:54.017Z,84.01
2018-07-05T02:29:15.474Z,83.99
2018-07-05T02:32:37.011Z,84.49
2018-07-05T02:35:58.564Z,84.30
2018-07-05T02:39:25.081Z,84.00
2018-07-05T02:42:46.560Z,84.59
2018-07-05T02:46:08.096Z,83.98
2018-07-05T02:49:29.552Z,84.64
2018-07-05T02:52:51.297Z,84.43
2018-07-05T02:56:12.572Z,85.16
2018-07-05T02:59:34.056Z,84.61
2018-07-05T03:02:55.420Z,84.78
2018-07-05T03:06:17.025Z,84.23
2018-07-05T03:09:38.609Z,84.50
2018-07-05T03:13:00.057Z,84.56
2018-07-05T03:16:21.701Z,83.98
2018-07-05T03:19:43.082Z,83.69
2018-07-05T03:23:04.697Z,84.32
2018-07-05T03:26:26.336Z,85.00
2018-07-05T03:29:47.849Z,84.49
2018-07-05T03:33:03.114Z,84.72
2018-07-05T03:36:24.453Z,83.80
2018-07-05T03:39:45.896Z,84.72
2018-07-05T03:43:07.492Z,85.61
2018-07-05T03:46:29.036Z,85.76
2018-07-05T03:49:50.438Z,86.77
2018-07-05T03:53:12.096Z,87.56
2018-07-05T03:56:33.354Z,88.45
2018-07-05T03:59:48.828Z,88.24
2018-07-05T04:03:10.127Z,89.37
2018-07-05T04:06:31.510Z,89.86
2018-07-05T04:09:52.826Z,90.98
2018-07-05T04:13:14.326Z,91.08
2018-07-05T04:16:35.815Z,90.94
2018-07-05T04:19:57.231Z,90.50
2018-07-05T04:23:18.686Z,89.32
2018-07-05T04:26:40.014Z,90.35
2018-07-05T04:30:01.416Z,89.21
2018-07-05T04:33:22.805Z,88.83
2018-07-05T04:36:44.161Z,88.52
2018-07-05T04:40:05.488Z,88.23
2018-07-05T04:43:20.960Z,88.27
2018-07-05T04:46:42.481Z,88.90
2018-07-05T04:50:03.889Z,88.37
2018-07-05T04:53:25.115Z,88.32
2018-07-05T04:56:46.541Z,89.34
2018-07-05T05:00:07.857Z,89.28
2018-07-05T05:03:29.206Z,88.81
2018-07-05T05:06:50.564Z,89.72
2018-07-05T05:10:12.035Z,90.29
2018-07-05T05:13:33.649Z,91.18
2018-07-05T05:16:55.246Z,91.39
2018-07-05T05:20:16.769Z,92.31
2018-07-05T05:23:38.305Z,92.38
2018-07-05T05:26:59.865Z,93.12
2018-07-05T05:30:21.279Z,94.17
2018-07-05T05:33:42.742Z,93.81
2018-07-05T05:37:04.264Z,92.91
2018-07-05T05:40:25.598Z,92.54
2018-07-05T05:43:46.985Z,91.24
2018-07-05T05:47:08.552Z,91.00
2018-07-05T05:50:30.125Z,89.91
2018-07-05T05:53:51.712Z,90.40
2018-07-05T05:57:13.219Z,89.34
2018-07-05T06:00:34.698Z,88.82
2018-07-05T06:03:56.785Z,89.51
2018-07-05T06:07:18.171Z,89.32
2018-07-05T06:10:39.477Z,88.49
2018-07-05T06:14:00.888Z,87.79
2018-07-05T06:17:22.336Z,88.04
2018-07-05T06:20:43.631Z,88.51
2018-07-05T06:24:04.849Z,87.56
2018-07-05T06:27:26.242Z,89.75
2018-07-05T06:30:47.886Z,89.79
2018-07-05T06:34:09.267Z,90.39
2018-07-05T06:37:31.670Z,90.34
2018-07-05T06:40:53.137Z,89.17
2018-07-05T06:44:14.654Z,89.57
2018-07-05T06:47:36.324Z,88.98
2018-07-05T06:50:57.694Z,88.63
2018-07-05T06:54:19.118Z,87.95
2018-07-05T06:57:40.665Z,86.27
2018-07-05T07:01:02.107Z,86.19
2018-07-05T07:04:23.480Z,84.25
2018-07-05T07:07:44.925Z,83.85
2018-07-05T07:11:06.380Z,83.45
2018-07-05T07:14:27.811Z,83.83
2018-07-05T07:17:43.200Z,83.45
2018-07-05T07:21:04.465Z,83.06
2018-07-05T07:24:25.797Z,84.19
2018-07-05T07:27:47.323Z,84.07
2018-07-05T07:31:08.778Z,84.21
2018-07-05T07:34:30.288Z,84.23
2018-07-05T07:37:51.816Z,82.39
2018-07-05T07:41:13.097Z,81.63
2018-07-05T07:44:16.918Z,81.46
2018-07-05T07:47:19.677Z,81.51
2018-07-05T07:50:22.433Z,81.12
2018-07-05T07:53:25.200Z,82.67
2018-07-05T07:56:27.994Z,82.69
2018-07-05T07:59:30.755Z,83.29
2018-07-05T08:02:33.509Z,83.66
2018-07-05T08:05:36.286Z,82.93
2018-07-05T08:08:39.035Z,82.72
2018-07-05T08:11:41.827Z,82.48
2018-07-05T08:14:44.640Z,80.95
2018-07-05T08:17:47.382Z,80.46
2018-07-05T08:20:50.472Z,79.92
2018-07-05T08:23:53.205Z,77.89
2018-07-05T08:26:55.975Z,76.96
2018-07-05T08:29:58.727Z,76.58
2018-07-05T08:33:01.465Z,75.51
2018-07-05T08:36:04.293Z,76.23
2018-07-05T08:39:07.210Z,76.78
2018-07-05T08:42:09.953Z,76.73
2018-07-05T08:45:12.715Z,78.73
2018-07-05T08:48:15.499Z,80.07
2018-07-05T08:51:18.248Z,81.81
2018-07-05T08:54:21.003Z,82.12
2018-07-05T08:57:23.737Z,80.85
2018-07-05T09:00:26.490Z,80.26
2018-07-05T09:03:29.265Z,78.82
2018-07-05T09:06:32.105Z,76.36
2018-07-05T09:09:34.823Z,74.22
2018-07-05T09:12:37.583Z,74.13
2018-07-05T09:15:40.308Z,73.74
2018-07-05T09:18:43.073Z,74.76
2018-07-05T09:21:45.882Z,76.33
2018-07-05T09:24:48.610Z,77.27
2018-07-05T09:27:51.437Z,77.95
2018-07-05T09:30:54.312Z,77.83
2018-07-05T09:33:57.062Z,77.78
2018-07-05T09:36:59.859Z,77.22
2018-07-05T09:40:02.600Z,76.39
2018-07-05T09:43:05.341Z,76.31
2018-07-05T09:46:08.344Z,77.01
2018-07-05T09:49:11.165Z,77.30
2018-07-05T09:52:13.927Z,77.34
2018-07-05T09:55:16.655Z,75.91
2018-07-05T09:58:19.427Z,73.57
2018-07-05T10:01:22.148Z,73.49
2018-07-05T10:04:24.940Z,73.34
2018-07-05T10:07:27.680Z,74.96
2018-07-05T10:10:30.424Z,75.67
2018-07-05T10:13:33.334Z,75.78
2018-07-05T10:16:35.945Z,74.68
2018-07-05T10:19:38.708Z,74.28
2018-07-05T10:22:41.437Z,74.77
2018-07-05T10:25:44.204Z,74.48
2018-07-05T10:29:05.611Z,76.20
2018-07-05T10:32:26.975Z,75.72
2018-07-05T10:35:29.844Z,74.80
2018-07-05T10:38:32.614Z,73.68
2018-07-05T10:41:54.003Z,73.46
2018-07-05T10:45:16.485Z,74.30
2018-07-05T10:48:38.107Z,75.22
2018-07-05T10:51:59.577Z,74.84
2018-07-05T10:55:21.415Z,74.48
2018-07-05T10:58:42.548Z,72.37
2018-07-05T11:02:04.007Z,72.25
2018-07-05T11:05:25.280Z,71.49
2018-07-05T11:08:46.670Z,72.01
2018-07-05T11:12:08.089Z,71.03
2018-07-05T11:15:23.526Z,70.80
2018-07-05T11:18:44.998Z,71.31
2018-07-05T11:22:06.387Z,70.92
2018-07-05T11:25:27.670Z,71.22
2018-07-05T11:28:48.964Z,70.97
2018-07-05T11:32:10.501Z,71.87
2018-07-05T11:35:31.870Z,71.53
2018-07-05T11:38:53.345Z,72.15
2018-07-05T11:42:14.622Z,72.93
2018-07-05T11:45:36.181Z,73.02
2018-07-05T11:48:57.685Z,73.53
2018-07-05T11:52:19.101Z,73.30
2018-07-05T11:55:40.657Z,72.12
2018-07-05T11:59:02.018Z,72.27
2018-07-05T12:02:23.613Z,72.01
2018-07-05T12:05:44.850Z,73.22
2018-07-05T12:09:07.696Z,72.62
2018-07-05T12:12:29.338Z,72.79
2018-07-05T12:15:51.065Z,72.47
2018-07-05T12:19:12.357Z,71.28
2018-07-05T12:22:33.903Z,71.76
2018-07-05T12:25:55.356Z,71.90
2018-07-05T12:29:16.795Z,71.77
2018-07-05T12:32:38.140Z,71.82
2018-07-05T12:35:59.602Z,71.25
2018-07-05T12:39:21.104Z,72.13
2018-07-05T12:42:42.497Z,73.13
2018-07-05T12:46:03.921Z,72.67
2018-07-05T12:49:25.371Z,72.00
2018-07-05T12:52:46.780Z,70.85
2018-07-05T12:56:08.134Z,71.00
2018-07-05T12:59:29.417Z,70.49
2018-07-05T13:02:50.691Z,71.63
2018-07-05T13:06:12.140Z,71.58
2018-07-05T13:09:33.598Z,71.54
2018-07-05T13:12:55.113Z,72.43
2018-07-05T13:16:16.480Z,73.07
2018-07-05T13:19:37.879Z,73.17
2018-07-05T13:22:59.445Z,74.11
2018-07-05T13:26:21.030Z,74.55
2018-07-05T13:29:42.438Z,75.26
2018-07-05T13:33:04.005Z,75.14
2018-07-05T13:36:25.542Z,74.44
2018-07-05T13:39:46.771Z,73.54
2018-07-05T13:43:08.342Z,73.40
2018-07-05T13:46:29.807Z,73.27
2018-07-05T13:49:51.233Z,72.72
2018-07-05T13:53:12.546Z,72.31
2018-07-05T13:56:33.950Z,72.40
2018-07-05T13:59:55.411Z,71.01
2018-07-05T14:03:16.847Z,69.18
2018-07-05T14:06:38.930Z,68.02
2018-07-05T14:10:00.499Z,67.43
2018-07-05T14:13:21.929Z,67.93
2018-07-05T14:16:43.284Z,68.55
2018-07-05T14:20:04.686Z,68.23
2018-07-05T14:23:26.152Z,67.96
2018-07-05T14:26:47.704Z,68.41
2018-07-05T14:30:08.984Z,67.59
2018-07-05T14:33:30.398Z,66.56
2018-07-05T14:36:51.775Z,68.59
2018-07-05T14:40:13.300Z,68.89
2018-07-05T14:43:34.826Z,70.03
2018-07-05T14:46:56.494Z,72.21
2018-07-05T14:50:17.827Z,72.57
2018-07-05T14:53:39.380Z,72.45
2018-07-05T14:57:00.761Z,72.07
2018-07-05T15:00:22.325Z,71.34
2018-07-05T15:03:43.709Z,70.48
2018-07-05T15:07:05.352Z,69.63
2018-07-05T15:10:26.806Z,70.55
2018-07-05T15:13:49.038Z,72.05
2018-07-05T15:17:10.571Z,72.95
2018-07-05T15:20:31.950Z,73.62
2018-07-05T15:23:53.301Z,73.90
2018-07-05T15:27:14.749Z,73.99
2018-07-05T15:30:36.037Z,73.68
2018-07-05T15:33:57.496Z,73.50
2018-07-05T15:37:18.840Z,74.41
2018-07-05T15:40:40.334Z,75.45
2018-07-05T15:44:01.841Z,74.81
2018-07-05T15:47:23.433Z,74.30
2018-07-05T15:50:44.963Z,73.60
2018-07-05T15:54:06.570Z,73.32
2018-07-05T15:57:27.958Z,73.33
2018-07-05T16:00:49.471Z,74.13
2018-07-05T16:04:11.053Z,74.37
2018-07-05T16:07:32.538Z,74.69
2018-07-05T16:10:53.993Z,75.44
2018-07-05T16:14:15.328Z,76.08
2018-07-05T16:17:36.902Z,76.87
2018-07-05T16:20:58.573Z,77.13
2018-07-05T16:24:19.961Z,77.37
2018-07-05T16:27:41.364Z,77.69
2018-07-05T16:31:02.884Z,79.08
2018-07-05T16:34:24.422Z,79.42
2018-07-05T16:37:45.979Z,80.06
2018-07-05T16:41:07.385Z,79.96
2018-07-05T16:44:28.760Z,79.52
2018-07-05T16:47:50.212Z,79.11
2018-07-05T16:51:11.750Z,80.18
2018-07-05T16:54:33.071Z,80.46
2018-07-05T16:57:54.421Z,80.50
2018-07-05T17:01:16.037Z,80.50
2018-07-05T17:04:37.571Z,79.93
2018-07-05T17:07:59.187Z,79.48
2018-07-05T17:11:20.757Z,78.38
2018-07-05T17:14:42.179Z,78.51
2018-07-05T17:18:03.585Z,77.56
2018-07-05T17:21:24.939Z,77.19
2018-07-05T17:24:46.348Z,76.89
2018-07-05T17:28:07.782Z,76.47
2018-07-05T17:31:29.310Z,75.50
2018-07-05T17:34:50.741Z,75.32
2018-07-05T17:38:12.132Z,75.52
2018-07-05T17:41:33.513Z,75.22
2018-07-05T17:44:55.144Z,75.50
2018-07-05T17:48:16.544Z,77.01
2018-07-05T17:51:38.098Z,78.60
2018-07-05T17:54:59.416Z,80.63
2018-07-05T17:58:20.940Z,80.80
2018-07-05T18:01:42.445Z,81.36
2018-07-05T18:05:03.801Z,82.16
2018-07-05T18:08:25.081Z,83.09
2018-07-05T18:11:46.553Z,84.41
2018-07-05T18:15:07.919Z,84.90
2018-07-05T18:18:29.214Z,86.43
2018-07-05T18:21:50.581Z,86.41
2018-07-05T18:25:12.053Z,87.92
2018-07-05T18:28:33.354Z,88.15
2018-07-05T18:31:54.883Z,89.30
2018-07-05T18:35:16.431Z,89.28
2018-07-05T18:38:31.787Z,88.19
2018-07-05T18:41:53.176Z,87.89
2018-07-05T18:45:14.400Z,87.77
2018-07-05T18:48:35.922Z,88.37
2018-07-05T18:51:57.411Z,87.65
2018-07-05T18:55:18.937Z,87.21
2018-07-05T18:58:40.427Z,86.92
2018-07-05T19:02:01.968Z,87.41
2018-07-05T19:05:23.421Z,87.33
2018-07-05T19:08:45.167Z,87.98
2018-07-05T19:12:06.731Z,88.06
2018-07-05T19:15:28.207Z,87.36
2018-07-05T19:18:49.576Z,87.75
2018-07-05T19:22:10.874Z,87.88
2018-07-05T19:25:32.464Z,86.28
2018-07-05T19:28:54.139Z,85.75
2018-07-05T19:32:15.499Z,85.03
2018-07-05T19:35:37.082Z,84.13
2018-07-05T19:38:58.424Z,83.22
2018-07-05T19:42:19.970Z,83.18
2018-07-05T19:45:41.556Z,82.65
2018-07-05T19:49:02.912Z,82.39
2018-07-05T19:52:24.205Z,82.11
2018-07-05T19:55:45.466Z,81.78
2018-07-05T19:59:06.918Z,81.36
2018-07-05T20:02:28.688Z,80.92
2018-07-05T20:05:50.087Z,80.05
2018-07-05T20:09:11.563Z,79.70
2018-07-05T20:12:32.844Z,80.41
2018-07-05T20:15:54.269Z,80.83
2018-07-05T20:19:15.841Z,80.80
2018-07-05T20:22:37.573Z,81.34
2018-07-05T20:25:59.009Z,81.86
2018-07-05T20:29:20.520Z,81.59
2018-07-05T20:32:42.095Z,81.77
2018-07-05T20:36:04.314Z,82.47
2018-07-05T20:39:25.834Z,82.48
2018-07-05T20:42:47.341Z,82.58
2018-07-05T20:46:08.777Z,82.72
2018-07-05T20:49:30.419Z,82.89
2018-07-05T20:52:51.813Z,83.14
2018-07-05T20:56:13.410Z,83.25
2018-07-05T20:59:35.175Z,82.42
2018-07-05T21:02:56.728Z,82.78
2018-07-05T21:06:18.627Z,82.66
2018-07-05T21:09:41.203Z,83.33
2018-07-05T21:13:03.002Z,83.29
2018-07-05T21:16:24.503Z,83.30
2018-07-05T21:19:40.075Z,83.24
2018-07-05T21:23:02.636Z,83.28
2018-07-05T21:26:24.367Z,83.15
2018-07-05T21:29:46.364Z,82.78
2018-07-05T21:33:07.922Z,83.28
2018-07-05T21:36:29.348Z,82.76
2018-07-05T21:39:50.839Z,82.82
2018-07-05T21:43:12.223Z,82.76
2018-07-05T21:46:33.746Z,83.34
2018-07-05T21:49:55.278Z,82.48
2018-07-05T21:53:16.759Z,82.57
2018-07-05T21:56:37.989Z,82.87
2018-07-05T21:59:59.259Z,82.55
2018-07-05T22:03:20.792Z,81.53
2018-07-05T22:06:42.297Z,82.20
2018-07-05T22:10:03.670Z,82.26
2018-07-05T22:13:24.965Z,81.59
2018-07-05T22:16:51.785Z,82.12
2018-07-05T22:20:18.644Z,81.65
2018-07-05T22:23:45.531Z,81.55
2018-07-05T22:27:10.300Z,81.80
2018-07-05T22:30:37.195Z,81.92
2018-07-05T22:33:58.717Z,82.51
2018-07-05T22:37:20.316Z,82.89
2018-07-05T22:40:41.780Z,82.57
2018-07-05T22:44:03.386Z,82.75
2018-07-05T22:47:24.721Z,82.54
2018-07-05T22:50:46.107Z,82.27
2018-07-05T22:54:07.311Z,82.17
2018-07-05T22:57:28.788Z,82.87
2018-07-05T23:00:50.041Z,83.21
2018-07-05T23:04:05.321Z,83.43
2018-07-05T23:07:26.949Z,83.25
2018-07-05T23:10:48.603Z,82.54
2018-07-05T23:14:10.150Z,83.27
2018-07-05T23:17:31.606Z,82.99
2018-07-05T23:20:52.993Z,82.78
2018-07-05T23:24:14.473Z,82.59
2018-07-05T23:27:35.925Z,83.10
2018-07-05T23:30:57.402Z,83.46
2018-07-05T23:34:18.867Z,82.84
2018-07-05T23:37:40.239Z,83.17
2018-07-05T23:41:01.654Z,83.52
2018-07-05T23:44:23.350Z,84.30
2018-07-05T23:47:45.050Z,83.94
2018-07-05T23:51:06.561Z,84.75
2018-07-05T23:54:28.102Z,84.61
2018-07-05T23:57:49.865Z,85.71
